createdAt,value
2023-05-21T00:04:31.064Z,49.90
2023-05-21T00:09:37.850Z,43.42
2023-05-21T00:14:43.255Z,39.47
2023-05-21T00:24:54.450Z,49.03
2023-05-21T00:29:59.697Z,40.22
2023-05-21T00:35:05.415Z,48.72
2023-05-21T00:40:11.583Z,58.78
2023-05-21T00:45:17.014Z,40.70
2023-05-21T00:50:24.399Z,46.35
2023-05-21T00:55:30.458Z,50.53
2023-05-21T01:00:37.272Z,47.10
2023-05-21T01:05:46.451Z,43.17
2023-05-21T01:10:52.453Z,48.58
2023-05-21T01:15:59.515Z,43.65
2023-05-21T01:21:05.957Z,39.33
2023-05-21T01:26:14.314Z,45.97
2023-05-21T01:31:33.088Z,43.25
2023-05-21T01:36:44.832Z,59.38
2023-05-21T01:41:51.839Z,47.30
2023-05-21T01:46:58.941Z,46.05
2023-05-21T01:52:04.972Z,44.88
2023-05-21T01:57:10.572Z,71.63
2023-05-21T02:02:16.285Z,54.97
2023-05-21T02:07:21.579Z,73.10
2023-05-21T02:17:37.445Z,46.85
2023-05-21T02:22:46.023Z,55.42
2023-05-21T02:27:54.872Z,56.17
2023-05-21T02:33:02.385Z,46.47
2023-05-21T02:38:10.570Z,73.57
2023-05-21T02:43:16.394Z,54.45
2023-05-21T02:48:21.952Z,68.43
2023-05-21T02:58:32.543Z,57.20
2023-05-21T03:08:43.391Z,81.18
2023-05-21T03:18:53.556Z,77.13
2023-05-21T03:24:00.137Z,55.33
2023-05-21T03:29:07.445Z,65.30
2023-05-21T03:34:13.990Z,75.30
2023-05-21T03:44:24.415Z,55.83
2023-05-21T03:49:45.665Z,84.72
2023-05-21T03:54:51.221Z,67.90
2023-05-21T03:59:57.390Z,60.20
2023-05-21T04:05:04.674Z,66.95
2023-05-21T04:10:10.598Z,58.13
2023-05-21T04:15:15.977Z,64.25
2023-05-21T04:20:21.512Z,75.10
2023-05-21T04:25:26.836Z,70.05
2023-05-21T04:30:32.760Z,61.15
2023-05-21T04:35:38.067Z,64.32
2023-05-21T04:40:43.282Z,66.50
2023-05-21T04:45:50.009Z,64.55
2023-05-21T04:50:57.479Z,63.45
2023-05-21T04:56:05.343Z,78.78
2023-05-21T05:01:10.828Z,70.85
2023-05-21T05:06:16.019Z,69.82
2023-05-21T05:11:21.359Z,73.72
2023-05-21T05:16:27.396Z,68.03
2023-05-21T05:21:34.779Z,66.38
2023-05-21T05:26:39.975Z,80.40
2023-05-21T05:31:45.388Z,64.35
2023-05-21T05:36:51.234Z,64.20
2023-05-21T05:41:57.185Z,68.53
2023-05-21T05:47:02.909Z,61.83
2023-05-21T05:52:08.702Z,59.03
2023-05-21T05:57:14.299Z,71.47
2023-05-21T06:02:20.487Z,60.53
2023-05-21T06:07:25.973Z,52.25
2023-05-21T06:12:31.161Z,67.40
2023-05-21T06:17:36.965Z,59.42
2023-05-21T06:22:42.380Z,43.05
2023-05-21T06:27:48.793Z,58.50
2023-05-21T06:32:59.324Z,54.80
2023-05-21T06:38:04.710Z,56.13
2023-05-21T06:43:10.410Z,52.92
2023-05-21T06:48:18.333Z,40.45
2023-05-21T06:53:26.310Z,40.88
2023-05-21T06:58:32.797Z,45.28
2023-05-21T07:03:38.864Z,41.60
2023-05-21T07:08:46.012Z,43.35
2023-05-21T07:13:51.500Z,43.53
2023-05-21T07:18:57.048Z,42.20
2023-05-21T07:24:02.483Z,33.38
2023-05-21T07:29:07.902Z,44.58
2023-05-21T07:34:13.470Z,36.60
2023-05-21T07:39:19.887Z,33.60
2023-05-21T07:44:26.030Z,35.88
2023-05-21T07:49:31.793Z,42.70
2023-05-21T07:54:37.816Z,35.17
2023-05-21T07:59:43.110Z,35.97
2023-05-21T08:04:50.607Z,41.88
2023-05-21T08:09:56.687Z,42.60
2023-05-21T08:15:03.341Z,38.92
2023-05-21T08:20:15.864Z,36.40
2023-05-21T08:25:28.646Z,34.53
2023-05-21T08:30:35.403Z,37.88
2023-05-21T08:35:41.382Z,34.83
2023-05-21T08:40:58.028Z,36.45
2023-05-21T08:46:06.330Z,48.95
2023-05-21T08:51:15.364Z,35.75
2023-05-21T08:56:27.369Z,39.33
2023-05-21T09:01:35.949Z,43.55
2023-05-21T09:06:54.736Z,41.08
2023-05-21T09:12:18.486Z,43.83
2023-05-21T09:17:24.549Z,43.70
2023-05-21T09:22:41.847Z,38.83
2023-05-21T09:27:47.306Z,43.40
2023-05-21T09:33:01.874Z,40.47
2023-05-21T09:38:11.059Z,45.27
2023-05-21T09:43:17.766Z,43.40
2023-05-21T09:48:41.049Z,45.60
2023-05-21T09:53:59.950Z,42.38
2023-05-21T09:59:06.481Z,36.75
2023-05-21T10:04:12.167Z,48.13
2023-05-21T10:09:20.787Z,41.20
2023-05-21T10:14:31.649Z,41.00
2023-05-21T10:19:38.688Z,41.22
2023-05-21T10:24:46.121Z,41.63
2023-05-21T10:29:52.040Z,45.72
2023-05-21T10:35:00.721Z,46.33
2023-05-21T10:40:06.892Z,45.85
2023-05-21T10:45:34.679Z,42.28
2023-05-21T10:51:04.327Z,46.10
2023-05-21T10:56:40.978Z,49.65
2023-05-21T11:01:47.663Z,41.60
2023-05-21T11:06:53.364Z,45.42
2023-05-21T11:12:02.760Z,48.75
2023-05-21T11:17:15.326Z,41.28
2023-05-21T11:22:26.224Z,56.95
2023-05-21T11:27:39.803Z,45.63
2023-05-21T11:33:12.115Z,47.38
2023-05-21T11:38:18.559Z,45.55
2023-05-21T11:43:24.333Z,52.38
2023-05-21T11:48:31.789Z,48.13
2023-05-21T11:53:42.178Z,46.38
2023-05-21T11:58:49.136Z,49.67
2023-05-21T12:03:59.318Z,45.17
2023-05-21T12:09:17.492Z,44.88
2023-05-21T12:14:26.854Z,46.47
2023-05-21T12:19:38.643Z,51.03
2023-05-21T12:24:48.043Z,46.17
2023-05-21T12:29:55.364Z,47.25
2023-05-21T12:35:01.094Z,46.63
2023-05-21T12:40:13.072Z,48.58
2023-05-21T12:45:19.991Z,52.97
2023-05-21T12:50:25.830Z,51.60
2023-05-21T12:55:33.320Z,41.95
2023-05-21T13:00:39.010Z,44.08
2023-05-21T13:05:44.755Z,47.40
2023-05-21T13:10:50.210Z,41.00
2023-05-21T13:15:56.908Z,44.22
2023-05-21T13:21:02.570Z,43.42
2023-05-21T13:26:08.154Z,40.08
2023-05-21T13:31:15.601Z,41.92
2023-05-21T13:36:21.272Z,50.38
2023-05-21T13:41:27.424Z,39.40
2023-05-21T13:46:32.888Z,47.75
2023-05-21T13:51:39.403Z,52.08
2023-05-21T13:56:49.274Z,39.88
2023-05-21T14:01:55.115Z,59.20
2023-05-21T14:07:00.815Z,46.15
2023-05-21T14:12:06.950Z,44.70
2023-05-21T14:17:12.698Z,53.03
2023-05-21T14:22:18.403Z,42.75
2023-05-21T14:27:24.021Z,49.53
2023-05-21T14:32:29.625Z,42.15
2023-05-21T14:37:35.291Z,51.42
2023-05-21T14:42:40.461Z,54.10
2023-05-21T14:47:45.901Z,44.83
2023-05-21T14:52:51.863Z,50.25
2023-05-21T14:57:56.948Z,47.45
2023-05-21T15:03:02.759Z,41.20
2023-05-21T15:08:10.958Z,44.90
2023-05-21T15:13:16.461Z,35.17
2023-05-21T15:18:21.769Z,48.45
2023-05-21T15:23:27.445Z,56.78
2023-05-21T15:28:32.982Z,43.85
2023-05-21T15:33:38.902Z,42.13
2023-05-21T15:38:44.586Z,40.80
2023-05-21T15:43:50.414Z,55.33
2023-05-21T15:48:55.921Z,42.47
2023-05-21T15:54:01.737Z,46.35
2023-05-21T15:59:07.124Z,37.40
2023-05-21T16:04:12.786Z,39.22
2023-05-21T16:09:18.424Z,41.33
2023-05-21T16:14:25.185Z,31.48
2023-05-21T16:19:30.904Z,35.60
2023-05-21T16:24:37.034Z,42.78
2023-05-21T16:29:42.783Z,39.50
2023-05-21T16:34:51.837Z,35.83
2023-05-21T16:39:57.771Z,36.67
2023-05-21T16:45:05.792Z,38.15
2023-05-21T16:50:12.107Z,43.20
2023-05-21T16:55:17.856Z,40.50
2023-05-21T17:00:23.541Z,28.20
2023-05-21T17:05:29.337Z,41.85
2023-05-21T17:10:35.499Z,34.08
2023-05-21T17:15:40.868Z,35.42
2023-05-21T17:20:46.267Z,44.20
2023-05-21T17:25:51.818Z,41.83
2023-05-21T17:31:07.267Z,40.58
2023-05-21T17:41:20.195Z,37.97
2023-05-21T17:46:25.608Z,40.22
2023-05-21T17:51:30.957Z,33.03
2023-05-21T17:56:40.471Z,40.85
2023-05-21T18:01:45.616Z,41.55
2023-05-21T18:06:51.311Z,35.90
2023-05-21T18:11:57.901Z,42.45
2023-05-21T18:17:03.622Z,37.17
2023-05-21T18:27:13.800Z,29.55
2023-05-21T18:37:23.666Z,36.35
2023-05-21T18:47:35.190Z,37.47
2023-05-21T18:52:40.235Z,37.28
2023-05-21T18:57:45.313Z,39.15
2023-05-21T19:02:50.952Z,41.25
2023-05-21T19:07:57.876Z,39.42
2023-05-21T19:13:06.210Z,36.35
2023-05-21T19:18:12.362Z,41.95
2023-05-21T19:23:17.744Z,40.20
2023-05-21T19:28:23.118Z,43.22
2023-05-21T19:33:28.655Z,40.05
2023-05-21T19:38:33.721Z,40.15
2023-05-21T19:43:39.055Z,38.22
2023-05-21T19:53:49.141Z,42.38
2023-05-21T19:58:54.677Z,40.83
2023-05-21T20:04:01.916Z,37.20
2023-05-21T20:09:08.798Z,37.40
2023-05-21T20:14:14.851Z,44.35
2023-05-21T20:19:22.151Z,31.27
2023-05-21T20:24:27.474Z,47.20
2023-05-21T20:29:33.353Z,39.17
2023-05-21T20:34:44.667Z,40.65
2023-05-21T20:40:00.096Z,38.35
2023-05-21T20:45:06.534Z,48.30
2023-05-21T20:50:13.535Z,34.00
2023-05-21T20:55:18.945Z,42.05
2023-05-21T21:00:24.428Z,39.13
2023-05-21T21:05:30.327Z,48.13
2023-05-21T21:10:36.096Z,38.03
2023-05-21T21:15:41.647Z,47.03
2023-05-21T21:20:50.867Z,43.00
2023-05-21T21:25:56.186Z,57.42
2023-05-21T21:36:06.350Z,40.38
2023-05-21T21:46:17.347Z,48.50
2023-05-21T21:51:23.574Z,37.63
2023-05-21T21:56:29.233Z,37.78
2023-05-21T22:01:34.710Z,38.78
2023-05-21T22:06:40.482Z,48.17
2023-05-21T22:11:45.797Z,54.72
2023-05-21T22:21:55.761Z,40.72
2023-05-21T22:32:05.734Z,40.83
2023-05-21T22:37:11.177Z,37.92
2023-05-21T22:42:16.458Z,38.95
2023-05-21T22:52:30.560Z,43.72
2023-05-21T22:57:36.452Z,40.95
2023-05-21T23:02:41.856Z,35.45
2023-05-21T23:07:47.107Z,37.47
2023-05-21T23:17:57.713Z,44.60
2023-05-21T23:23:03.097Z,43.72
2023-05-21T23:33:12.981Z,52.20
2023-05-21T23:38:18.034Z,33.28
2023-05-21T23:48:31.241Z,47.97
2023-05-21T23:53:37.078Z,36.17
2023-05-21T23:58:42.886Z,43.47
